OOSH

Sohar Airport

Sohar, Oman
TAF OOSH 260500Z 2606/2712 04012KT 8000 NSC BECMG 2618/2620 20005KT BECMG 2706/2708 05012KT
Issued Valid From Valid To
Apr-26 @ 05:00 UTC
(60 minutes ago)
Apr-26 @ 06:00 UTC
(a few seconds ago)
Apr-27 @ 12:00 UTC
(-1 days ago)
Apr-26 @ 06:00 to Apr-26 @ 18:00
TAF OOSH 260500Z 2606/2712 04012KT 8000 NSC
Wind Visibility Clouds
40° at 12 knots 7,998 meters
  • No significant clouds
Becoming Apr-26 @ 18:00 to Apr-27 @ 06:00
BECMG 2618/2620 20005KT
Wind Visibility Clouds
200° at 5 knots 7,998 meters
  • No significant clouds
Becoming Apr-27 @ 06:00 to Apr-27 @ 12:00
BECMG 2706/2708 05012KT
Wind Visibility Clouds
50° at 12 knots 7,998 meters
  • No significant clouds
TAF OOSH 260500Z 2606/2712 04012KT 8000 NSC BECMG 2618/2620 20005KT BECMG 2706/2708 05012KT
Issued Apr-26 @ 05:00 UTC
(60 minutes ago)
Valid From Apr-26 @ 06:00 UTC
(a few seconds ago)
Valid To Apr-27 @ 12:00 UTC
(-1 days ago)
Apr-26 @ 06:00 - Apr-26 @ 18:00
Wind Visibility
40° at 12 knots 7,998 meters
Clouds
  • No significant clouds
Becoming Apr-26 @ 18:00 - Apr-27 @ 06:00
Wind Visibility
200° at 5 knots 7,998 meters
Clouds
  • No significant clouds
Becoming Apr-27 @ 06:00 - Apr-27 @ 12:00
Wind Visibility
50° at 12 knots 7,998 meters
Clouds
  • No significant clouds